Time;durP1;ratioP1;P1;durP2;ratioP2;P2;SDS_P1;SDS_P2;PMS_P1;PMS_P2;Temp;Humidity;BMP_temperature;BMP_pressure;BME280_temperature;BME280_humidity;BME280_pressure;Samples;Min_cycle;Max_cycle;Signal;HPM_P1;HPM_P2
2021/11/28 00:00:25;;;;;;;13.50;9.05;;;2.90;86.00;;;;;;4978078;28;20315;-77
2021/11/28 00:02:52;;;;;;;10.20;7.00;;;3.00;86.20;;;;;;4980285;28;20211;-77
2021/11/28 00:05:21;;;;;;;9.23;6.97;;;3.00;86.20;;;;;;4982860;28;20326;-78
2021/11/28 00:08:06;;;;;;;13.00;10.13;;;2.90;86.00;;;;;;4979295;28;20232;-77
2021/11/28 00:10:53;;;;;;;8.55;6.40;;;2.90;87.20;;;;;;4976124;28;20210;-77
2021/11/28 00:16:07;;;;;;;8.20;6.70;;;3.00;86.20;;;;;;4968953;28;20199;-77
2021/11/28 00:18:34;;;;;;;12.07;5.78;;;3.00;84.80;;;;;;4975914;28;20211;-77
2021/11/28 00:21:01;;;;;;;9.27;5.95;;;2.90;85.00;;;;;;4975655;28;20219;-77
2021/11/28 00:23:29;;;;;;;7.40;5.50;;;3.00;85.60;;;;;;4975720;28;20212;-77
2021/11/28 00:25:56;;;;;;;7.97;6.78;;;3.00;85.10;;;;;;4975696;28;20738;-77
2021/11/28 00:28:24;;;;;;;12.20;6.70;;;3.00;84.10;;;;;;4976091;28;20715;-77
2021/11/28 00:30:51;;;;;;;14.77;7.50;;;3.00;83.90;;;;;;4982667;28;20223;-77
2021/11/28 00:33:18;;;;;;;10.15;7.50;;;3.00;83.90;;;;;;4982449;28;20303;-77
2021/11/28 00:35:46;;;;;;;11.55;7.63;;;3.00;83.70;;;;;;4975726;28;20298;-77
2021/11/28 00:38:13;;;;;;;10.15;7.43;;;3.10;83.80;;;;;;4979871;28;20216;-77
2021/11/28 00:40:42;;;;;;;7.80;6.18;;;3.10;83.40;;;;;;4991825;28;20274;-77
2021/11/28 00:43:08;;;;;;;7.53;6.72;;;3.20;83.20;;;;;;4995859;28;20204;-77
2021/11/28 00:45:35;;;;;;;10.50;5.70;;;3.20;82.00;;;;;;4997547;28;20295;-77
2021/11/28 00:48:02;;;;;;;9.68;7.75;;;3.20;81.10;;;;;;4998291;28;20259;-78
2021/11/28 00:50:39;;;;;;;12.77;9.35;;;3.10;80.60;;;;;;4987947;28;20236;-77
2021/11/28 00:53:06;;;;;;;14.63;9.40;;;3.10;81.10;;;;;;4980760;28;20266;-77
2021/11/28 00:55:36;;;;;;;10.70;8.30;;;3.10;81.50;;;;;;4986398;28;20756;-77
2021/11/28 00:58:04;;;;;;;10.07;5.30;;;3.20;81.70;;;;;;4993222;28;20231;-76
2021/11/28 01:00:32;;;;;;;9.13;5.72;;;3.20;81.60;;;;;;4991528;28;20236;-77
2021/11/28 01:02:59;;;;;;;8.05;5.78;;;3.20;81.30;;;;;;4989426;28;20288;-77
2021/11/28 01:05:26;;;;;;;10.25;5.82;;;3.20;81.50;;;;;;4986121;28;20247;-79
2021/11/28 01:07:52;;;;;;;6.18;4.85;;;3.10;81.50;;;;;;4993448;28;20213;-80
2021/11/28 01:10:19;;;;;;;6.65;5.25;;;3.10;81.20;;;;;;4993107;28;20329;-78
2021/11/28 01:12:47;;;;;;;7.82;5.05;;;3.20;81.20;;;;;;4993497;28;20783;-79
2021/11/28 01:15:15;;;;;;;6.50;4.63;;;3.20;80.80;;;;;;4981995;28;20224;-78
2021/11/28 01:17:42;;;;;;;5.22;4.72;;;3.20;81.10;;;;;;4974572;28;20416;-78
2021/11/28 01:20:11;;;;;;;7.88;4.60;;;3.20;81.10;;;;;;4973926;28;20208;-78
2021/11/28 01:22:38;;;;;;;8.68;5.30;;;3.10;80.60;;;;;;4974576;28;20211;-78
2021/11/28 01:25:06;;;;;;;7.90;5.07;;;3.10;82.20;;;;;;4973139;28;20239;-79
2021/11/28 01:27:34;;;;;;;7.15;5.32;;;3.10;82.70;;;;;;4973751;28;20675;-78
2021/11/28 01:30:01;;;;;;;9.43;5.40;;;3.10;83.90;;;;;;4974302;28;20208;-78
2021/11/28 01:32:29;;;;;;;6.85;5.00;;;3.00;83.90;;;;;;4973728;28;20212;-79
2021/11/28 01:34:56;;;;;;;7.40;5.35;;;3.10;84.20;;;;;;4973964;28;20232;-79
2021/11/28 01:37:23;;;;;;;8.88;4.90;;;3.10;84.30;;;;;;4973513;28;20235;-78
2021/11/28 01:39:49;;;;;;;5.30;4.25;;;3.20;84.10;;;;;;4973819;28;20227;-78
2021/11/28 01:42:33;;;;;;;7.43;4.55;;;3.30;83.40;;;;;;4973665;28;20216;-79
2021/11/28 01:45:00;;;;;;;6.35;4.30;;;3.30;83.90;;;;;;4973710;28;20235;-78
2021/11/28 01:47:27;;;;;;;9.20;4.93;;;3.30;83.20;;;;;;4974381;28;20222;-78
2021/11/28 01:49:55;;;;;;;6.00;4.60;;;3.30;82.60;;;;;;4973978;28;20211;-78
2021/11/28 01:52:22;;;;;;;5.18;4.25;;;3.30;82.70;;;;;;4973818;28;20315;-77
2021/11/28 01:54:49;;;;;;;5.57;4.63;;;3.30;83.10;;;;;;4973987;28;20234;-78
2021/11/28 01:57:16;;;;;;;6.72;4.53;;;3.30;83.00;;;;;;4973266;28;20631;-77
2021/11/28 01:59:42;;;;;;;5.78;4.63;;;3.30;83.20;;;;;;4973480;28;20219;-78
2021/11/28 02:02:09;;;;;;;5.57;4.95;;;3.40;83.20;;;;;;4973315;28;20231;-78
2021/11/28 02:04:37;;;;;;;5.30;4.80;;;3.40;81.90;;;;;;4973210;28;20243;-78
2021/11/28 02:07:07;;;;;;;5.50;4.90;;;3.40;82.10;;;;;;4973733;28;20247;-78
2021/11/28 02:09:38;;;;;;;5.25;4.13;;;3.30;81.70;;;;;;4973756;28;20598;-79
2021/11/28 02:12:07;;;;;;;6.40;4.75;;;3.30;82.10;;;;;;4973318;28;20246;-78
2021/11/28 02:14:34;;;;;;;7.40;4.60;;;3.30;82.60;;;;;;4973094;28;20603;-78
2021/11/28 02:17:01;;;;;;;5.95;4.90;;;3.20;82.80;;;;;;4973206;28;20207;-78
2021/11/28 02:19:27;;;;;;;7.82;4.80;;;3.30;82.90;;;;;;4973449;28;20654;-78
2021/11/28 02:21:56;;;;;;;6.90;5.43;;;3.20;82.80;;;;;;4973424;28;20208;-76
2021/11/28 02:24:22;;;;;;;5.53;4.93;;;3.20;82.90;;;;;;4973379;28;20727;-77
2021/11/28 02:26:49;;;;;;;6.13;4.00;;;3.20;83.80;;;;;;4972665;28;20245;-77
2021/11/28 02:29:16;;;;;;;6.53;5.05;;;3.20;83.40;;;;;;4972970;28;20216;-78
2021/11/28 02:31:43;;;;;;;5.60;4.43;;;3.10;83.00;;;;;;4973359;28;20767;-77
2021/11/28 02:34:10;;;;;;;4.85;4.30;;;3.10;83.90;;;;;;4978329;28;20545;-78
2021/11/28 02:36:37;;;;;;;5.40;4.60;;;3.10;83.80;;;;;;4973522;28;20204;-77
2021/11/28 02:39:05;;;;;;;7.45;4.43;;;3.10;83.90;;;;;;4973328;28;20212;-78
2021/11/28 02:41:33;;;;;;;5.75;4.47;;;3.20;84.60;;;;;;4974526;28;20507;-77
2021/11/28 02:44:00;;;;;;;6.00;5.35;;;3.20;84.60;;;;;;4974046;28;20239;-78
2021/11/28 02:46:27;;;;;;;5.18;4.72;;;3.10;84.40;;;;;;4973760;28;20226;-78
2021/11/28 02:48:57;;;;;;;5.97;4.95;;;3.20;84.80;;;;;;4974308;28;20218;-78
2021/11/28 02:51:24;;;;;;;6.35;4.90;;;3.20;85.00;;;;;;4974782;28;20208;-78
2021/11/28 02:53:51;;;;;;;4.47;4.07;;;3.20;85.10;;;;;;4973996;28;20318;-78
2021/11/28 02:56:19;;;;;;;6.15;4.88;;;3.20;85.00;;;;;;4976022;28;20211;-79
2021/11/28 02:58:47;;;;;;;7.80;4.97;;;3.20;85.20;;;;;;4974688;28;20661;-77
2021/11/28 03:01:16;;;;;;;5.82;5.15;;;3.20;85.20;;;;;;4984086;28;20216;-79
2021/11/28 03:03:43;;;;;;;7.25;4.45;;;3.20;85.10;;;;;;4996112;28;20216;-81
2021/11/28 03:06:10;;;;;;;11.38;5.43;;;3.20;84.20;;;;;;4996392;28;20218;-81
2021/11/28 03:08:37;;;;;;;5.72;4.30;;;3.20;84.50;;;;;;4996481;28;20193;-80
2021/11/28 03:11:04;;;;;;;8.75;4.95;;;3.20;84.60;;;;;;4995999;28;20271;-80
2021/11/28 03:13:35;;;;;;;9.60;5.53;;;3.20;85.00;;;;;;4996217;28;20227;-82
2021/11/28 03:16:04;;;;;;;6.45;4.50;;;3.10;85.00;;;;;;4986108;28;20222;-79
2021/11/28 03:18:31;;;;;;;5.07;4.50;;;3.10;85.40;;;;;;4975083;28;20618;-80
2021/11/28 03:21:01;;;;;;;6.03;4.82;;;3.20;85.20;;;;;;4974252;28;20238;-79
2021/11/28 03:23:29;;;;;;;6.00;4.68;;;3.20;85.50;;;;;;4973509;28;20247;-80
2021/11/28 03:26:10;;;;;;;7.30;5.07;;;3.10;84.80;;;;;;4974862;28;20724;-80
2021/11/28 03:28:42;;;;;;;6.30;4.88;;;3.10;85.70;;;;;;4981262;28;20219;-79
2021/11/28 03:31:09;;;;;;;6.30;5.50;;;3.20;85.80;;;;;;4979023;28;20212;-78
2021/11/28 03:33:38;;;;;;;9.52;5.13;;;3.20;85.20;;;;;;4973147;28;20213;-78
2021/11/28 03:36:06;;;;;;;7.10;5.22;;;3.20;84.90;;;;;;4972677;28;20231;-78
2021/11/28 03:38:33;;;;;;;8.10;5.47;;;3.20;84.60;;;;;;4972887;28;20240;-79
2021/11/28 03:41:00;;;;;;;7.20;5.07;;;3.10;84.00;;;;;;4973132;28;20211;-77
2021/11/28 03:43:27;;;;;;;12.30;5.60;;;3.20;85.00;;;;;;4972700;28;20232;-79
2021/11/28 03:45:55;;;;;;;6.90;5.45;;;3.20;84.10;;;;;;4972736;28;20252;-78
2021/11/28 03:48:22;;;;;;;8.00;5.75;;;3.20;84.00;;;;;;4974531;28;20216;-78
2021/11/28 03:50:49;;;;;;;8.85;5.53;;;3.20;84.70;;;;;;4976440;28;20216;-77
2021/11/28 03:53:16;;;;;;;7.93;5.10;;;3.20;84.00;;;;;;4975843;28;20644;-78
2021/11/28 03:55:43;;;;;;;8.38;5.53;;;3.10;83.90;;;;;;4975726;28;20236;-78
2021/11/28 03:58:10;;;;;;;9.18;5.45;;;3.10;84.10;;;;;;4975826;28;20212;-78
2021/11/28 04:00:38;;;;;;;7.18;5.97;;;3.10;84.00;;;;;;4975241;28;20316;-80
2021/11/28 04:03:08;;;;;;;8.77;6.20;;;3.10;84.40;;;;;;4975509;28;20676;-78
2021/11/28 04:05:35;;;;;;;7.57;5.68;;;3.10;84.20;;;;;;4975233;28;20719;-77
2021/11/28 04:08:02;;;;;;;6.30;5.60;;;3.10;84.00;;;;;;4976105;28;20208;-78
2021/11/28 04:10:28;;;;;;;5.75;5.15;;;3.20;84.60;;;;;;4975401;28;20705;-80
2021/11/28 04:12:55;;;;;;;7.40;5.40;;;3.20;84.20;;;;;;4976670;28;20208;-79
2021/11/28 04:15:22;;;;;;;9.05;5.30;;;3.30;84.20;;;;;;4975717;28;20251;-78
2021/11/28 04:17:50;;;;;;;6.35;5.60;;;3.30;84.10;;;;;;4976070;28;20212;-79
2021/11/28 04:20:18;;;;;;;7.10;5.78;;;3.30;84.10;;;;;;4978468;28;20220;-77
2021/11/28 04:22:45;;;;;;;6.25;5.63;;;3.30;83.80;;;;;;4979760;28;20244;-78
2021/11/28 04:25:13;;;;;;;7.07;5.47;;;3.30;83.50;;;;;;4979600;28;20681;-77
2021/11/28 04:27:41;;;;;;;7.38;5.43;;;3.30;83.50;;;;;;4979933;28;20228;-77
2021/11/28 04:30:11;;;;;;;5.82;5.20;;;3.30;83.20;;;;;;4984938;28;20242;-78
2021/11/28 04:32:38;;;;;;;7.72;4.93;;;3.20;83.40;;;;;;4989933;28;20310;-78
2021/11/28 04:35:05;;;;;;;9.50;5.70;;;3.20;84.00;;;;;;4992781;28;20238;-78
2021/11/28 04:37:34;;;;;;;9.60;5.65;;;3.10;83.90;;;;;;4991910;28;20295;-78
2021/11/28 04:40:01;;;;;;;9.52;5.75;;;3.10;84.70;;;;;;4990140;28;20218;-78
2021/11/28 04:42:29;;;;;;;6.18;4.97;;;3.10;85.10;;;;;;4986521;28;20239;-78
2021/11/28 04:44:56;;;;;;;8.00;6.10;;;3.10;85.90;;;;;;4980045;28;20710;-77
2021/11/28 04:47:23;;;;;;;8.07;5.30;;;3.10;86.10;;;;;;4975274;28;20710;-77
2021/11/28 04:49:50;;;;;;;6.00;5.40;;;3.20;86.30;;;;;;4975466;28;20309;-78
2021/11/28 04:52:17;;;;;;;6.20;5.15;;;3.20;86.10;;;;;;4974979;28;20223;-77
2021/11/28 04:54:45;;;;;;;7.45;5.78;;;3.20;85.10;;;;;;4975278;28;20243;-77
2021/11/28 04:57:12;;;;;;;5.55;4.95;;;3.20;85.30;;;;;;4974573;28;20522;-78
2021/11/28 04:59:39;;;;;;;7.63;5.00;;;3.20;85.60;;;;;;4974093;28;20212;-78
2021/11/28 05:02:06;;;;;;;8.43;5.70;;;3.20;85.60;;;;;;4977175;28;20664;-78
2021/11/28 05:04:33;;;;;;;8.25;5.30;;;3.20;85.40;;;;;;4985519;28;20247;-79
2021/11/28 05:07:00;;;;;;;8.68;5.50;;;3.20;86.20;;;;;;4987325;28;20242;-78
2021/11/28 05:09:27;;;;;;;5.45;4.93;;;3.20;85.40;;;;;;4978897;28;20213;-79
2021/11/28 05:11:55;;;;;;;6.13;5.53;;;3.10;84.90;;;;;;4980449;28;20243;-78
2021/11/28 05:14:22;;;;;;;6.70;5.10;;;3.10;86.50;;;;;;4981489;28;20232;-78
2021/11/28 05:16:49;;;;;;;7.45;4.75;;;3.10;85.70;;;;;;4985626;28;20280;-78
2021/11/28 05:19:16;;;;;;;5.82;5.32;;;3.10;86.40;;;;;;4991463;28;20216;-79
2021/11/28 05:21:43;;;;;;;8.90;5.03;;;3.10;86.40;;;;;;4982311;28;20219;-81
2021/11/28 05:24:11;;;;;;;7.78;5.22;;;3.10;85.90;;;;;;4986455;28;20242;-79
2021/11/28 05:26:38;;;;;;;6.80;5.03;;;3.10;85.90;;;;;;4980784;28;20271;-80
2021/11/28 05:29:07;;;;;;;9.05;4.80;;;3.10;86.00;;;;;;4979701;28;20545;-80
2021/11/28 05:31:33;;;;;;;5.40;4.90;;;3.10;86.00;;;;;;4978943;28;20232;-80
2021/11/28 05:34:00;;;;;;;9.30;5.70;;;3.10;86.00;;;;;;4979442;28;20232;-80
2021/11/28 05:36:27;;;;;;;8.13;5.22;;;3.10;85.70;;;;;;4979458;28;20219;-80
2021/11/28 05:38:54;;;;;;;6.72;5.50;;;3.10;85.20;;;;;;4985496;28;20204;-80
2021/11/28 05:41:21;;;;;;;8.10;4.75;;;3.10;85.20;;;;;;4982333;28;20243;-79
2021/11/28 05:43:50;;;;;;;6.85;5.05;;;3.10;85.20;;;;;;4979941;28;20228;-80
2021/11/28 05:46:18;;;;;;;7.93;4.90;;;3.20;85.10;;;;;;4980805;28;20304;-80
2021/11/28 05:48:45;;;;;;;6.13;5.18;;;3.10;84.50;;;;;;4984213;28;20276;-80
2021/11/28 05:51:12;;;;;;;6.00;4.90;;;3.10;84.70;;;;;;4983437;28;20244;-80
2021/11/28 05:53:39;;;;;;;5.22;4.72;;;3.10;84.70;;;;;;4985859;28;20207;-79
2021/11/28 05:56:06;;;;;;;6.55;5.03;;;3.10;85.00;;;;;;4983209;28;20263;-81
2021/11/28 05:58:33;;;;;;;7.63;4.93;;;3.20;84.10;;;;;;4985082;28;20236;-80
2021/11/28 06:01:00;;;;;;;5.38;4.63;;;3.10;83.90;;;;;;4985920;28;20238;-81
2021/11/28 06:03:28;;;;;;;8.23;4.82;;;3.10;84.00;;;;;;4987880;28;20208;-80
2021/11/28 06:05:55;;;;;;;5.68;4.10;;;3.10;82.90;;;;;;4987929;28;20216;-81
2021/11/28 06:08:22;;;;;;;5.90;4.45;;;3.10;83.30;;;;;;4986934;28;20232;-76
2021/11/28 06:10:49;;;;;;;14.60;5.80;;;3.00;83.60;;;;;;4987286;28;20229;-79
2021/11/28 06:13:16;;;;;;;7.10;4.88;;;2.90;83.80;;;;;;4992519;28;20222;-77
2021/11/28 06:15:42;;;;;;;8.25;4.60;;;3.00;83.80;;;;;;4995564;28;20215;-76
2021/11/28 06:18:10;;;;;;;6.40;4.38;;;3.00;83.80;;;;;;4995996;28;20279;-77
2021/11/28 06:20:39;;;;;;;12.02;5.22;;;3.00;83.90;;;;;;4996118;28;20212;-76
2021/11/28 06:23:06;;;;;;;7.38;5.07;;;2.90;83.50;;;;;;4993905;28;20246;-78
2021/11/28 06:25:32;;;;;;;6.10;4.50;;;3.00;82.90;;;;;;4990940;28;20239;-79
2021/11/28 06:28:00;;;;;;;5.22;4.72;;;3.00;82.70;;;;;;4987212;28;20710;-79
2021/11/28 06:30:28;;;;;;;5.90;4.20;;;3.00;82.40;;;;;;4984474;28;20266;-78
2021/11/28 06:32:55;;;;;;;4.63;4.13;;;3.00;82.80;;;;;;4983481;28;20212;-78
2021/11/28 06:35:22;;;;;;;6.70;4.45;;;3.00;82.50;;;;;;4984101;28;20235;-79
2021/11/28 06:37:50;;;;;;;6.15;4.40;;;3.10;82.20;;;;;;4992725;28;20204;-78
2021/11/28 06:40:17;;;;;;;5.43;4.55;;;3.10;82.00;;;;;;4993072;28;20211;-80
2021/11/28 06:42:44;;;;;;;4.68;3.92;;;3.00;81.80;;;;;;4989587;28;20216;-78
2021/11/28 06:45:11;;;;;;;8.90;4.95;;;3.10;82.40;;;;;;4989790;28;20226;-79
2021/11/28 06:47:39;;;;;;;6.18;4.97;;;3.10;81.90;;;;;;4992993;28;20232;-75
2021/11/28 06:50:07;;;;;;;4.93;4.43;;;3.10;81.90;;;;;;4996113;28;20309;-76
2021/11/28 06:52:34;;;;;;;5.97;4.40;;;3.10;82.00;;;;;;4993730;28;20219;-76
2021/11/28 06:55:02;;;;;;;4.75;4.10;;;3.00;82.30;;;;;;4988795;28;20250;-79
2021/11/28 06:57:29;;;;;;;5.60;4.72;;;2.90;82.00;;;;;;4989580;28;20215;-77
2021/11/28 06:59:56;;;;;;;5.28;3.88;;;2.90;83.00;;;;;;4990823;28;20208;-76
2021/11/28 07:02:23;;;;;;;6.63;4.57;;;2.80;83.20;;;;;;4979384;28;20274;-79
2021/11/28 07:04:50;;;;;;;4.95;4.05;;;2.70;83.60;;;;;;5026680;23;20305;-78
2021/11/28 07:07:17;;;;;;;7.03;4.93;;;2.70;84.00;;;;;;5048765;28;20724;-77
2021/11/28 07:09:44;;;;;;;6.63;4.50;;;2.70;84.60;;;;;;5048351;28;20218;-78
2021/11/28 07:12:12;;;;;;;4.97;4.45;;;2.50;85.10;;;;;;5048165;28;20284;-78
2021/11/28 07:14:39;;;;;;;6.00;4.85;;;2.40;87.00;;;;;;5045245;28;20752;-77
2021/11/28 07:17:06;;;;;;;6.78;5.22;;;2.40;88.10;;;;;;5033238;28;20215;-77
2021/11/28 07:19:35;;;;;;;6.65;4.80;;;2.40;89.20;;;;;;5033655;28;20675;-77
2021/11/28 07:22:02;;;;;;;7.47;5.15;;;2.30;89.60;;;;;;5033502;28;20272;-76
2021/11/28 07:24:29;;;;;;;6.35;4.75;;;2.30;90.20;;;;;;5037117;28;20569;-77
2021/11/28 07:26:55;;;;;;;8.25;5.20;;;2.30;90.60;;;;;;5037212;28;20213;-77
2021/11/28 07:29:23;;;;;;;6.07;4.88;;;2.20;90.70;;;;;;5037503;28;20217;-80
2021/11/28 07:31:50;;;;;;;6.45;5.13;;;2.20;91.50;;;;;;5024538;28;20213;-77
2021/11/28 07:34:17;;;;;;;6.28;5.10;;;2.20;92.10;;;;;;5016807;28;20230;-78
2021/11/28 07:36:44;;;;;;;7.05;4.75;;;2.30;92.50;;;;;;5017824;28;20242;-77
2021/11/28 07:39:11;;;;;;;8.48;5.43;;;2.40;93.00;;;;;;5018709;28;20240;-77
2021/11/28 07:41:39;;;;;;;7.57;5.32;;;2.50;93.20;;;;;;5019231;28;20324;-77
2021/11/28 07:44:06;;;;;;;7.03;4.57;;;2.60;93.00;;;;;;5025634;28;20222;-78
2021/11/28 07:46:34;;;;;;;8.68;4.95;;;2.70;93.10;;;;;;5029926;28;20222;-78
2021/11/28 07:49:01;;;;;;;6.97;5.20;;;2.80;92.80;;;;;;5030990;28;20234;-77
2021/11/28 07:51:28;;;;;;;13.27;5.57;;;2.90;92.50;;;;;;5025141;28;20203;-77
2021/11/28 07:53:56;;;;;;;10.75;5.45;;;2.90;91.70;;;;;;5022571;28;20662;-76
2021/11/28 07:56:23;;;;;;;7.07;4.72;;;2.90;91.30;;;;;;5016684;28;20685;-77
2021/11/28 07:58:50;;;;;;;6.00;5.30;;;3.00;91.00;;;;;;5016779;28;20286;-77
2021/11/28 08:01:17;;;;;;;8.40;4.93;;;3.10;90.90;;;;;;5016896;28;20211;-76
2021/11/28 08:03:46;;;;;;;5.30;4.80;;;3.20;90.90;;;;;;5020167;28;20214;-78
2021/11/28 08:06:13;;;;;;;4.93;4.43;;;3.30;90.60;;;;;;5025714;28;20332;-78
2021/11/28 08:08:39;;;;;;;10.55;6.70;;;3.30;90.00;;;;;;5023782;28;20226;-77
2021/11/28 08:11:06;;;;;;;7.53;4.80;;;3.50;89.70;;;;;;5018983;28;20211;-76
2021/11/28 08:13:33;;;;;;;6.13;4.95;;;3.50;88.40;;;;;;5017474;28;20670;-76
2021/11/28 08:16:00;;;;;;;14.07;6.60;;;3.60;87.30;;;;;;5017638;28;20234;-77
2021/11/28 08:18:27;;;;;;;18.02;9.82;;;3.70;86.10;;;;;;5017677;28;20249;-76
2021/11/28 08:20:55;;;;;;;11.15;6.88;;;3.70;85.80;;;;;;5017133;28;20200;-76
2021/11/28 08:23:22;;;;;;;14.50;7.43;;;3.80;84.80;;;;;;5017549;28;20210;-76
2021/11/28 08:25:49;;;;;;;15.70;6.93;;;3.90;84.20;;;;;;5017805;28;20238;-76
2021/11/28 08:28:16;;;;;;;14.23;7.10;;;3.90;83.20;;;;;;5017368;28;20235;-76
2021/11/28 08:30:43;;;;;;;7.70;5.45;;;3.90;81.80;;;;;;5016497;28;20218;-77
2021/11/28 08:33:10;;;;;;;6.30;5.20;;;4.00;80.60;;;;;;5017141;28;20225;-76
2021/11/28 08:35:37;;;;;;;11.15;5.40;;;4.00;80.60;;;;;;5016338;28;20231;-76
2021/11/28 08:38:06;;;;;;;7.50;4.85;;;4.00;80.60;;;;;;5019456;28;20664;-78
2021/11/28 08:40:34;;;;;;;6.35;4.35;;;4.00;79.70;;;;;;5027568;28;20210;-77
2021/11/28 08:43:01;;;;;;;20.27;11.32;;;4.10;79.80;;;;;;5027052;28;20218;-77
2021/11/28 08:45:28;;;;;;;17.20;9.43;;;4.20;79.00;;;;;;5028149;28;20231;-78
2021/11/28 08:47:55;;;;;;;21.95;12.60;;;4.30;78.40;;;;;;5026132;28;20698;-78
2021/11/28 08:50:21;;;;;;;16.98;8.98;;;4.40;77.40;;;;;;5026110;28;20207;-78
2021/11/28 08:52:48;;;;;;;23.10;11.75;;;4.60;76.10;;;;;;5029095;28;20208;-78
2021/11/28 08:55:18;;;;;;;12.13;7.60;;;4.50;74.90;;;;;;5031418;28;20322;-78
2021/11/28 08:57:46;;;;;;;9.32;7.00;;;4.60;74.90;;;;;;5024200;28;20211;-77
2021/11/28 09:00:15;;;;;;;14.98;9.32;;;4.80;74.70;;;;;;5018687;28;20211;-77
2021/11/28 09:02:42;;;;;;;6.95;4.97;;;5.00;74.20;;;;;;5017174;28;20211;-77
2021/11/28 09:05:09;;;;;;;6.95;5.55;;;5.00;72.90;;;;;;5017784;28;20239;-76
2021/11/28 09:07:36;;;;;;;4.90;4.50;;;5.10;73.10;;;;;;5021341;28;20235;-78
2021/11/28 09:10:03;;;;;;;7.30;5.38;;;5.20;72.00;;;;;;5024478;28;20303;-77
2021/11/28 09:12:32;;;;;;;5.80;5.15;;;5.30;71.30;;;;;;5026392;28;20235;-76
2021/11/28 09:14:58;;;;;;;5.45;4.78;;;5.30;70.80;;;;;;5024108;28;20230;-77
2021/11/28 09:17:25;;;;;;;8.50;4.45;;;5.30;69.70;;;;;;5021634;28;20219;-76
2021/11/28 09:19:57;;;;;;;7.13;5.20;;;5.30;69.00;;;;;;5020941;28;20204;-76
2021/11/28 09:22:34;;;;;;;7.40;5.00;;;5.40;69.00;;;;;;5020496;28;20260;-78
2021/11/28 09:25:00;;;;;;;5.13;4.45;;;5.40;68.90;;;;;;5018680;28;20231;-79
2021/11/28 09:27:28;;;;;;;6.82;4.82;;;5.40;68.00;;;;;;5019127;28;20200;-77
2021/11/28 09:29:57;;;;;;;6.03;4.40;;;5.40;68.40;;;;;;5025412;28;20208;-78
2021/11/28 09:32:24;;;;;;;6.28;4.97;;;5.40;68.10;;;;;;5026598;28;20216;-77
2021/11/28 09:34:51;;;;;;;6.55;4.95;;;5.50;68.00;;;;;;5026564;28;20235;-78
2021/11/28 09:37:17;;;;;;;6.38;4.70;;;5.50;68.70;;;;;;5030928;28;20199;-78
2021/11/28 09:39:45;;;;;;;6.90;4.80;;;5.70;68.30;;;;;;5045952;28;20207;-77
2021/11/28 09:42:16;;;;;;;6.65;4.57;;;5.70;67.70;;;;;;5042726;28;20241;-76
2021/11/28 09:44:44;;;;;;;4.47;4.07;;;5.80;67.40;;;;;;5045985;28;20233;-77
2021/11/28 09:47:12;;;;;;;4.85;4.30;;;5.80;67.30;;;;;;5046003;28;20200;-77
2021/11/28 09:49:41;;;;;;;4.63;3.58;;;5.70;67.20;;;;;;5032023;28;20228;-75
2021/11/28 09:52:11;;;;;;;5.35;3.55;;;5.80;67.20;;;;;;5031788;28;20212;-77
2021/11/28 09:54:42;;;;;;;4.22;3.88;;;5.80;67.00;;;;;;5032221;28;20220;-77
2021/11/28 09:57:12;;;;;;;7.03;3.95;;;5.80;66.80;;;;;;5030819;28;20208;-77
2021/11/28 09:59:40;;;;;;;4.88;4.35;;;5.70;66.60;;;;;;5022595;28;20245;-76
2021/11/28 10:02:07;;;;;;;6.28;4.05;;;5.60;66.70;;;;;;5022434;28;20207;-76
2021/11/28 10:04:36;;;;;;;5.75;3.80;;;5.60;66.50;;;;;;5022370;28;20271;-76
2021/11/28 10:07:03;;;;;;;7.13;3.75;;;5.60;66.20;;;;;;5022791;28;20207;-77
2021/11/28 10:09:30;;;;;;;6.97;4.40;;;5.60;66.10;;;;;;5024422;28;20234;-77
2021/11/28 10:12:13;;;;;;;8.60;4.32;;;5.60;66.10;;;;;;5031106;28;20212;-77
2021/11/28 10:14:42;;;;;;;4.80;4.22;;;5.60;66.20;;;;;;5030334;28;20224;-76
2021/11/28 10:17:09;;;;;;;4.65;3.90;;;5.60;66.10;;;;;;5019784;28;20295;-76
2021/11/28 10:19:37;;;;;;;4.88;3.50;;;5.60;66.60;;;;;;5017504;28;20410;-75
2021/11/28 10:22:05;;;;;;;5.80;3.53;;;5.60;66.70;;;;;;5020957;28;20207;-78
2021/11/28 10:24:32;;;;;;;6.72;4.20;;;5.60;65.00;;;;;;5018708;28;20234;-75
2021/11/28 10:27:05;;;;;;;7.10;4.55;;;5.50;64.70;;;;;;5017522;28;20203;-75
2021/11/28 10:29:35;;;;;;;5.82;3.55;;;5.50;66.00;;;;;;5016053;28;20212;-76
2021/11/28 10:32:06;;;;;;;6.70;3.70;;;5.50;66.20;;;;;;5016487;28;20211;-76
2021/11/28 10:34:36;;;;;;;8.35;5.30;;;5.50;66.20;;;;;;5016858;28;20307;-75
2021/11/28 10:37:06;;;;;;;4.63;3.97;;;5.50;66.10;;;;;;5017506;28;20655;-76
2021/11/28 10:39:39;;;;;;;4.78;3.50;;;5.50;66.00;;;;;;5017090;28;20208;-76
2021/11/28 10:42:08;;;;;;;5.32;3.45;;;5.50;65.20;;;;;;5017209;28;20271;-77
2021/11/28 10:44:35;;;;;;;3.28;2.95;;;5.50;64.70;;;;;;5018740;28;20224;-76
2021/11/28 10:47:08;;;;;;;3.40;3.10;;;5.50;64.80;;;;;;5016372;28;20613;-76
2021/11/28 10:49:39;;;;;;;5.57;4.13;;;5.50;64.80;;;;;;5021395;28;20223;-77
2021/11/28 10:52:12;;;;;;;5.00;4.00;;;5.60;64.80;;;;;;5029132;28;20246;-77
2021/11/28 10:54:42;;;;;;;7.68;3.42;;;5.70;64.90;;;;;;5023688;28;20235;-77
2021/11/28 10:57:30;;;;;;;6.32;4.40;;;5.70;65.00;;;;;;5017809;28;20235;-77
2021/11/28 11:00:01;;;;;;;7.05;4.65;;;5.80;65.00;;;;;;5018872;28;20203;-76
2021/11/28 11:02:30;;;;;;;5.97;4.50;;;5.80;64.00;;;;;;5020469;28;20488;-78
2021/11/28 11:04:58;;;;;;;5.88;3.58;;;5.80;63.90;;;;;;5021258;28;20232;-77
2021/11/28 11:07:27;;;;;;;7.88;3.35;;;5.90;63.40;;;;;;5021111;28;20207;-76
2021/11/28 11:09:56;;;;;;;4.50;4.10;;;6.00;63.00;;;;;;5021051;28;20228;-77
2021/11/28 11:12:28;;;;;;;4.65;4.03;;;6.10;62.40;;;;;;5020168;28;20220;-75
2021/11/28 11:14:59;;;;;;;5.00;3.80;;;6.30;61.90;;;;;;5020755;28;20236;-75
2021/11/28 11:17:31;;;;;;;5.57;3.67;;;6.40;61.10;;;;;;5024603;28;20224;-76
2021/11/28 11:19:59;;;;;;;6.32;3.50;;;6.50;61.10;;;;;;5020392;28;20192;-74
2021/11/28 11:22:29;;;;;;;3.08;2.78;;;6.40;59.40;;;;;;5020407;28;20208;-74
2021/11/28 11:24:58;;;;;;;4.35;2.80;;;6.50;59.70;;;;;;5020701;28;20327;-75
2021/11/28 11:27:29;;;;;;;4.93;3.22;;;6.60;59.50;;;;;;5021043;28;20235;-76
2021/11/28 11:30:00;;;;;;;3.38;2.67;;;6.60;59.00;;;;;;5024669;28;20222;-77
2021/11/28 11:32:41;;;;;;;4.00;2.85;;;6.60;59.40;;;;;;5039195;28;20191;-76
2021/11/28 11:35:10;;;;;;;3.00;2.80;;;6.60;59.20;;;;;;5040115;28;20250;-77
2021/11/28 11:37:39;;;;;;;4.88;3.10;;;6.60;59.10;;;;;;5039951;28;20202;-77
2021/11/28 11:40:10;;;;;;;4.05;3.20;;;6.70;58.80;;;;;;5040024;28;20208;-77
2021/11/28 11:42:38;;;;;;;3.75;3.30;;;6.70;58.80;;;;;;5036431;28;20199;-78
2021/11/28 11:45:08;;;;;;;5.22;3.25;;;6.60;59.10;;;;;;5034477;28;20224;-76
2021/11/28 11:47:35;;;;;;;4.63;3.55;;;6.50;58.90;;;;;;5033215;28;20214;-77
2021/11/28 11:50:02;;;;;;;4.93;4.07;;;6.30;58.40;;;;;;5028865;28;20242;-76
2021/11/28 11:52:29;;;;;;;5.78;3.72;;;6.20;59.60;;;;;;5034439;28;20208;-76
2021/11/28 11:55:01;;;;;;;4.07;3.72;;;6.20;60.00;;;;;;5037874;28;20246;-78
2021/11/28 11:57:34;;;;;;;5.10;4.00;;;6.00;60.10;;;;;;5031333;28;20232;-76
2021/11/28 12:00:19;;;;;;;4.18;3.60;;;6.00;60.50;;;;;;5030030;28;20263;-76
2021/11/28 12:02:49;;;;;;;5.45;4.18;;;6.00;61.60;;;;;;5025242;28;20672;-75
2021/11/28 12:05:39;;;;;;;3.60;3.30;;;6.10;61.80;;;;;;5027142;28;20322;-76
2021/11/28 12:08:09;;;;;;;4.65;4.15;;;6.20;60.90;;;;;;5033329;28;20203;-76
2021/11/28 12:10:40;;;;;;;5.60;3.80;;;6.00;60.90;;;;;;5036172;28;20200;-78
2021/11/28 12:13:09;;;;;;;8.13;4.07;;;6.00;62.00;;;;;;5036056;28;20608;-77
2021/11/28 12:15:37;;;;;;;7.15;3.97;;;6.10;61.90;;;;;;5035702;28;20219;-77
2021/11/28 12:18:06;;;;;;;5.95;4.10;;;6.30;61.30;;;;;;5035662;28;20211;-75
2021/11/28 12:20:58;;;;;;;4.05;3.40;;;6.30;61.00;;;;;;5037935;28;20206;-78
2021/11/28 12:23:51;;;;;;;4.45;3.40;;;6.40;61.10;;;;;;5037343;28;20184;-77
2021/11/28 12:26:57;;;;;;;8.77;4.43;;;6.40;60.80;;;;;;5037730;28;20220;-76
2021/11/28 12:29:46;;;;;;;4.63;4.03;;;6.40;60.30;;;;;;5037233;28;20258;-76
2021/11/28 12:32:21;;;;;;;6.28;4.22;;;6.40;60.90;;;;;;5036225;28;20192;-75
2021/11/28 12:34:52;;;;;;;3.55;3.20;;;6.50;60.40;;;;;;5030849;28;20227;-75
2021/11/28 12:37:21;;;;;;;3.97;3.58;;;6.40;59.10;;;;;;5019938;28;20208;-76
2021/11/28 12:39:48;;;;;;;4.18;3.40;;;6.50;58.50;;;;;;5018781;28;20655;-76
2021/11/28 12:42:19;;;;;;;3.95;3.55;;;6.50;57.90;;;;;;5017163;28;20204;-76
2021/11/28 12:45:00;;;;;;;3.90;3.40;;;6.60;57.20;;;;;;5016848;28;20259;-77
2021/11/28 12:47:29;;;;;;;4.72;3.50;;;6.60;56.70;;;;;;5017158;28;20191;-77
2021/11/28 12:49:58;;;;;;;4.25;3.65;;;6.70;56.80;;;;;;5016597;28;20318;-76
2021/11/28 12:52:40;;;;;;;3.63;3.30;;;6.70;56.80;;;;;;5017692;28;20203;-77
2021/11/28 12:55:16;;;;;;;3.80;3.40;;;6.70;55.90;;;;;;5017384;28;20294;-75
2021/11/28 12:57:44;;;;;;;4.75;3.13;;;6.60;55.40;;;;;;5020571;28;20833;-76
2021/11/28 13:00:27;;;;;;;4.35;3.47;;;6.50;55.10;;;;;;5025219;28;20232;-76
2021/11/28 13:02:57;;;;;;;4.00;3.40;;;6.50;56.30;;;;;;5019578;28;20699;-76
2021/11/28 13:05:43;;;;;;;7.22;4.22;;;6.40;56.60;;;;;;5012524;23;20350;-77